Delhi, Iowa
Current Conditions -  °F | °C
As of 4:35 PM on Monday 22 Dec 2014 (Local Time) from KMXO Reporting Station
Haze Haze  
Wind Chill: 27°   Ceiling: 400
Heat Index: 36°   Visibility: 3mi
Dew Point: 36°   Wind: 13mph
Humidity: 100%   Direction: 120°ESE
Pressure: 29.56"   Gusts: NA
Location:  42.43°N, 91.33°W
Report Text: KMXO 222235Z AUTO 12011KT 3SM BR OVC004 02/02 A2956 RMK AO2
Loading
Personal Weather Stations






























Interactive Weather Map New forecast layout! Learn more

10-Day Weather Forecast

Advertisements
Track Severe Weather on mobile